Time;durP1;ratioP1;P1;durP2;ratioP2;P2;SDS_P1;SDS_P2;PMS_P1;PMS_P2;Temp;Humidity;BMP_temperature;BMP_pressure;BME280_temperature;BME280_humidity;BME280_pressure;Samples;Min_cycle;Max_cycle;Signal;HPM_P1;HPM_P2
2023/08/07 00:00:34;;;;;;;108.90;3.00;;;15.30;50.50;;;;;;5036659;28;20191;-84
2023/08/07 00:03:00;;;;;;;109.30;3.10;;;14.90;51.60;;;;;;5035216;28;20212;-83
2023/08/07 00:05:25;;;;;;;108.60;2.80;;;14.40;54.20;;;;;;5035706;28;20288;-83
2023/08/07 00:07:51;;;;;;;108.77;2.77;;;15.00;53.80;;;;;;5035768;28;20176;-84
2023/08/07 00:10:17;;;;;;;109.27;3.20;;;14.80;53.00;;;;;;5035273;28;20251;-84
2023/08/07 00:12:43;;;;;;;108.80;3.00;;;15.40;51.90;;;;;;5035218;28;20421;-83
2023/08/07 00:15:10;;;;;;;109.17;3.03;;;16.10;48.90;;;;;;5035459;28;20172;-84
2023/08/07 00:17:36;;;;;;;108.83;2.70;;;15.60;48.70;;;;;;5035340;28;20180;-83
2023/08/07 00:20:01;;;;;;;116.33;3.97;;;15.80;48.60;;;;;;5034030;28;20463;-83
2023/08/07 00:22:27;;;;;;;109.10;3.10;;;16.10;45.60;;;;;;5035610;28;20222;-83
2023/08/07 00:24:52;;;;;;;108.90;2.97;;;16.80;45.70;;;;;;5035822;28;20207;-84
2023/08/07 00:27:18;;;;;;;108.97;2.80;;;16.30;44.80;;;;;;5039494;28;20200;-83
2023/08/07 00:29:44;;;;;;;108.90;2.90;;;16.40;44.90;;;;;;5036226;28;20200;-83
2023/08/07 00:32:09;;;;;;;109.00;2.90;;;16.50;44.50;;;;;;5034869;28;20195;-83
2023/08/07 00:34:35;;;;;;;109.00;3.00;;;16.10;45.80;;;;;;5034823;28;20180;-84
2023/08/07 00:37:00;;;;;;;108.63;2.80;;;15.80;46.60;;;;;;5035500;28;20261;-84
2023/08/07 00:39:26;;;;;;;109.00;3.07;;;15.60;47.40;;;;;;5035489;28;20589;-83
2023/08/07 00:41:52;;;;;;;108.80;2.80;;;15.20;50.00;;;;;;5035600;28;20179;-83
2023/08/07 00:44:17;;;;;;;108.70;2.80;;;16.50;49.60;;;;;;5034489;28;20299;-83
2023/08/07 00:46:43;;;;;;;108.97;2.90;;;15.80;47.40;;;;;;5034954;28;20188;-83
2023/08/07 00:49:11;;;;;;;108.97;2.97;;;16.00;46.90;;;;;;5035035;28;20196;-83
2023/08/07 00:51:37;;;;;;;108.60;2.60;;;15.50;48.30;;;;;;5035649;28;20446;-83
2023/08/07 00:54:04;;;;;;;109.00;3.03;;;15.70;47.40;;;;;;5035165;28;20443;-83
2023/08/07 00:56:31;;;;;;;108.90;2.93;;;15.30;48.20;;;;;;5034294;28;20817;-84
2023/08/07 00:59:00;;;;;;;108.97;2.83;;;14.70;50.90;;;;;;5034617;28;20526;-84
2023/08/07 01:01:27;;;;;;;108.73;2.77;;;14.80;51.30;;;;;;5034835;28;20422;-83
2023/08/07 01:03:53;;;;;;;108.70;2.60;;;15.20;51.10;;;;;;5034776;28;20541;-83
2023/08/07 01:06:18;;;;;;;108.87;2.90;;;15.90;47.50;;;;;;5032581;28;20931;-83
2023/08/07 01:08:45;;;;;;;109.00;2.93;;;14.80;51.30;;;;;;5033609;28;20430;-84
2023/08/07 01:11:36;;;;;;;109.20;2.73;;;15.70;48.90;;;;;;5034093;28;20222;-84
2023/08/07 01:14:19;;;;;;;108.77;2.77;;;15.30;48.90;;;;;;5034050;28;20415;-84
2023/08/07 01:17:15;;;;;;;108.80;2.90;;;15.00;50.70;;;;;;5033993;28;20410;-83
2023/08/07 01:19:42;;;;;;;108.63;2.80;;;15.00;50.30;;;;;;5033773;28;20458;-83
2023/08/07 01:22:08;;;;;;;108.47;2.80;;;14.90;50.10;;;;;;5035132;28;20419;-83
2023/08/07 01:24:38;;;;;;;108.90;2.93;;;15.50;49.70;;;;;;5034504;28;20415;-83
2023/08/07 01:27:19;;;;;;;108.67;2.73;;;15.00;51.50;;;;;;5035809;28;20413;-83
2023/08/07 01:30:06;;;;;;;108.60;2.70;;;16.10;55.20;;;;;;5034899;28;20426;-83
2023/08/07 01:32:59;;;;;;;108.77;2.93;;;15.10;50.00;;;;;;5034393;28;20419;-83
2023/08/07 01:35:29;;;;;;;109.37;3.20;;;15.10;49.90;;;;;;5034767;28;20439;-84
2023/08/07 01:37:58;;;;;;;108.60;2.50;;;15.30;48.10;;;;;;5041969;28;20504;-84
2023/08/07 01:40:24;;;;;;;108.90;2.90;;;15.10;49.10;;;;;;5033597;28;20441;-84
2023/08/07 01:42:50;;;;;;;109.10;2.97;;;14.80;52.20;;;;;;5033687;28;20471;-84
2023/08/07 01:45:26;;;;;;;109.07;3.07;;;14.80;50.60;;;;;;5032704;28;20263;-84
2023/08/07 01:47:52;;;;;;;108.73;2.93;;;15.50;50.50;;;;;;5033271;28;20197;-84
2023/08/07 01:50:19;;;;;;;108.60;2.90;;;15.20;49.20;;;;;;5031397;28;21176;-84
2023/08/07 01:52:46;;;;;;;108.60;2.60;;;15.40;48.40;;;;;;5033057;28;20918;-84
2023/08/07 01:55:12;;;;;;;108.63;2.70;;;15.70;49.20;;;;;;5033012;28;20763;-83
2023/08/07 01:57:37;;;;;;;108.97;3.00;;;16.10;45.80;;;;;;5032973;28;20430;-83
2023/08/07 02:00:03;;;;;;;108.77;2.90;;;15.50;46.80;;;;;;5032799;28;20199;-83
2023/08/07 02:02:29;;;;;;;108.87;2.97;;;15.20;48.10;;;;;;5034148;28;20200;-83
2023/08/07 02:04:54;;;;;;;108.63;2.83;;;15.50;48.90;;;;;;5036402;28;20444;-84
2023/08/07 02:07:20;;;;;;;157.77;3.43;;;15.30;48.00;;;;;;5032782;28;20181;-83
2023/08/07 02:09:46;;;;;;;109.07;3.00;;;15.30;48.30;;;;;;5032447;28;20207;-83
2023/08/07 02:12:11;;;;;;;108.50;2.90;;;15.40;47.60;;;;;;5032348;28;20655;-84
2023/08/07 02:14:37;;;;;;;109.50;3.20;;;15.50;47.10;;;;;;5032447;28;20187;-84
2023/08/07 02:17:02;;;;;;;108.70;2.70;;;15.30;50.40;;;;;;5032444;28;20679;-84
2023/08/07 02:19:28;;;;;;;109.20;3.00;;;14.80;50.00;;;;;;5031479;28;20571;-84
2023/08/07 02:21:53;;;;;;;110.80;3.37;;;14.90;49.30;;;;;;5032121;28;20665;-83
2023/08/07 02:24:20;;;;;;;108.80;2.70;;;14.50;53.30;;;;;;5032324;28;20208;-83
2023/08/07 02:26:45;;;;;;;109.50;3.20;;;15.60;50.10;;;;;;5032204;28;20179;-84
2023/08/07 02:29:11;;;;;;;109.33;3.10;;;15.40;48.10;;;;;;5032265;28;20938;-83
2023/08/07 02:31:36;;;;;;;109.07;3.07;;;15.10;49.00;;;;;;5032189;28;20184;-84
2023/08/07 02:34:02;;;;;;;108.90;3.00;;;15.20;47.50;;;;;;5032264;28;20180;-83
2023/08/07 02:36:27;;;;;;;109.00;2.90;;;15.30;48.70;;;;;;5032101;28;20251;-84
2023/08/07 02:38:53;;;;;;;108.67;2.80;;;14.70;49.80;;;;;;5031997;28;20211;-84
2023/08/07 02:41:19;;;;;;;108.60;2.70;;;15.20;49.30;;;;;;5032451;28;20188;-83
2023/08/07 02:43:44;;;;;;;118.70;3.40;;;15.10;48.40;;;;;;5030840;28;20245;-84
2023/08/07 02:46:10;;;;;;;108.70;2.80;;;15.50;45.70;;;;;;5031764;28;20175;-83
2023/08/07 02:48:35;;;;;;;109.10;3.20;;;15.00;46.70;;;;;;5031432;28;20191;-83
2023/08/07 02:51:01;;;;;;;108.80;2.80;;;15.30;48.30;;;;;;5031881;28;20178;-83
2023/08/07 02:53:26;;;;;;;109.13;3.17;;;15.00;47.60;;;;;;5031614;28;20180;-84
2023/08/07 02:55:52;;;;;;;108.60;2.57;;;14.70;49.00;;;;;;5031440;28;20243;-84
2023/08/07 02:58:17;;;;;;;108.87;2.87;;;14.90;46.60;;;;;;5031474;28;20176;-83
2023/08/07 03:00:43;;;;;;;109.17;3.10;;;15.30;47.90;;;;;;5031710;28;20655;-84
2023/08/07 03:03:09;;;;;;;108.97;2.90;;;14.70;49.70;;;;;;5031929;28;20607;-84
2023/08/07 03:05:35;;;;;;;108.90;2.90;;;15.10;49.80;;;;;;5031227;28;20226;-84
2023/08/07 03:08:00;;;;;;;109.17;3.23;;;15.00;47.10;;;;;;5031499;28;20418;-84
2023/08/07 03:10:26;;;;;;;108.87;3.03;;;15.20;45.80;;;;;;5031934;28;20176;-84
2023/08/07 03:12:51;;;;;;;108.90;2.90;;;14.80;47.40;;;;;;5030332;28;20269;-84
2023/08/07 03:15:17;;;;;;;108.63;2.80;;;14.90;49.80;;;;;;5031385;28;20172;-85
2023/08/07 03:17:43;;;;;;;108.80;3.00;;;15.10;46.90;;;;;;5031406;28;20187;-84
2023/08/07 03:20:09;;;;;;;108.80;2.80;;;15.20;46.60;;;;;;5031305;28;20287;-84
2023/08/07 03:22:35;;;;;;;108.70;2.67;;;15.10;46.30;;;;;;5031199;28;20201;-84
2023/08/07 03:25:00;;;;;;;108.70;2.80;;;15.00;46.30;;;;;;5031270;28;20416;-84
2023/08/07 03:27:26;;;;;;;108.70;3.10;;;15.00;46.70;;;;;;5031251;28;20178;-85
2023/08/07 03:29:51;;;;;;;108.07;2.70;;;15.50;45.60;;;;;;5031555;28;20243;-84
2023/08/07 03:32:17;;;;;;;108.53;2.70;;;15.00;46.10;;;;;;5033980;28;20179;-84
2023/08/07 03:34:43;;;;;;;108.70;2.87;;;15.70;44.50;;;;;;5035110;28;20177;-84
2023/08/07 03:37:08;;;;;;;108.80;2.83;;;15.50;44.60;;;;;;5035403;28;20176;-84
2023/08/07 03:39:34;;;;;;;108.87;3.00;;;15.70;43.60;;;;;;5040002;28;20199;-85
2023/08/07 03:42:00;;;;;;;108.53;2.80;;;15.80;43.20;;;;;;5035291;28;20175;-84
2023/08/07 03:44:25;;;;;;;108.87;2.97;;;15.30;43.90;;;;;;5034865;28;20692;-83
2023/08/07 03:46:51;;;;;;;109.00;2.97;;;15.30;44.10;;;;;;5035220;28;20172;-84
2023/08/07 03:49:17;;;;;;;108.80;2.90;;;15.30;45.00;;;;;;5034918;28;20224;-84
2023/08/07 03:51:42;;;;;;;108.60;2.97;;;15.50;43.30;;;;;;5035160;28;20420;-84
2023/08/07 03:54:08;;;;;;;108.70;2.80;;;15.90;43.10;;;;;;5035256;28;20185;-84
2023/08/07 03:56:36;;;;;;;108.60;2.73;;;16.20;42.20;;;;;;5034944;28;20274;-84
2023/08/07 03:59:02;;;;;;;108.97;3.10;;;15.80;42.30;;;;;;5034909;28;20195;-84
2023/08/07 04:01:28;;;;;;;108.90;3.00;;;16.30;42.60;;;;;;5035119;28;20426;-84
2023/08/07 04:03:53;;;;;;;108.60;2.70;;;15.50;43.00;;;;;;5034954;28;20521;-85
2023/08/07 04:06:20;;;;;;;108.90;2.97;;;15.30;43.80;;;;;;5034489;28;20703;-84
2023/08/07 04:08:46;;;;;;;109.07;3.10;;;15.50;43.20;;;;;;5034765;28;20189;-84
2023/08/07 04:11:12;;;;;;;108.60;2.60;;;16.00;43.30;;;;;;5035391;28;20414;-83
2023/08/07 04:13:38;;;;;;;108.50;2.70;;;15.70;41.70;;;;;;5034743;28;20417;-83
2023/08/07 04:16:04;;;;;;;108.57;2.67;;;15.50;44.10;;;;;;5034628;28;20830;-84
2023/08/07 04:18:31;;;;;;;108.70;2.80;;;15.80;42.20;;;;;;5034004;28;20224;-84
2023/08/07 04:20:57;;;;;;;113.30;3.30;;;16.10;42.80;;;;;;5034421;28;20421;-84
2023/08/07 04:23:24;;;;;;;108.87;3.10;;;15.80;41.50;;;;;;5034429;28;20549;-84
2023/08/07 04:25:50;;;;;;;108.43;2.67;;;15.80;43.00;;;;;;5034303;28;20433;-84
2023/08/07 04:28:17;;;;;;;108.40;2.60;;;16.30;40.10;;;;;;5034233;28;20772;-84
2023/08/07 04:30:44;;;;;;;108.60;3.00;;;16.60;41.00;;;;;;5034722;28;20430;-84
2023/08/07 04:33:10;;;;;;;108.40;2.60;;;16.40;41.20;;;;;;5034574;28;20422;-84
2023/08/07 04:35:36;;;;;;;108.90;3.20;;;17.20;41.60;;;;;;5034061;28;20415;-84
2023/08/07 04:38:02;;;;;;;108.37;2.83;;;;;;;;;;5034396;28;20987;-84
2023/08/07 04:40:28;;;;;;;108.40;2.70;;;16.30;39.60;;;;;;5034526;28;20620;-84
2023/08/07 04:42:54;;;;;;;108.20;2.70;;;16.60;40.40;;;;;;5033274;28;21010;-84
2023/08/07 04:45:19;;;;;;;108.50;2.90;;;16.00;42.50;;;;;;5033900;28;20441;-84
2023/08/07 04:47:45;;;;;;;108.70;3.00;;;16.70;42.20;;;;;;5034129;28;20644;-84
2023/08/07 04:50:11;;;;;;;108.37;2.80;;;16.50;39.70;;;;;;5032199;28;20534;-85
2023/08/07 04:52:37;;;;;;;111.77;3.10;;;16.90;38.80;;;;;;5033870;28;20414;-84
2023/08/07 04:55:02;;;;;;;108.20;2.60;;;16.90;38.80;;;;;;5039496;28;20180;-84
2023/08/07 04:57:28;;;;;;;108.50;2.80;;;15.80;41.40;;;;;;5039670;28;20462;-84
2023/08/07 04:59:54;;;;;;;108.47;2.83;;;14.10;38.40;;;;;;5035496;28;20332;-84
2023/08/07 05:02:19;;;;;;;108.67;3.00;;;16.10;41.50;;;;;;5034512;28;20650;-84
2023/08/07 05:04:45;;;;;;;108.37;2.70;;;16.10;41.60;;;;;;5035032;28;20175;-84
2023/08/07 05:07:12;;;;;;;108.30;2.80;;;15.90;40.60;;;;;;5033742;28;20465;-84
2023/08/07 05:09:38;;;;;;;108.47;2.83;;;16.70;41.60;;;;;;5033997;28;20773;-84
2023/08/07 05:12:04;;;;;;;108.47;2.80;;;16.10;41.30;;;;;;5034099;28;20412;-84
2023/08/07 05:14:30;;;;;;;108.37;2.80;;;16.10;42.00;;;;;;5038505;28;20415;-84
2023/08/07 05:16:55;;;;;;;108.67;2.90;;;16.10;42.30;;;;;;5034095;28;20911;-85
2023/08/07 05:19:21;;;;;;;108.40;2.80;;;16.40;40.20;;;;;;5033061;28;20328;-84
2023/08/07 05:21:49;;;;;;;108.23;2.80;;;16.10;40.70;;;;;;5034156;28;20250;-84
2023/08/07 05:24:15;;;;;;;108.00;2.50;;;16.50;41.70;;;;;;5033224;28;20208;-84
2023/08/07 05:26:41;;;;;;;108.20;2.90;;;16.50;40.50;;;;;;5033617;28;20641;-84
2023/08/07 05:29:07;;;;;;;108.27;2.70;;;16.70;39.70;;;;;;5033811;28;20800;-83
2023/08/07 05:31:33;;;;;;;108.30;2.90;;;16.20;42.10;;;;;;5033474;28;20532;-84
2023/08/07 05:33:59;;;;;;;108.13;2.60;;;16.00;42.20;;;;;;5033386;28;20453;-84
2023/08/07 05:36:24;;;;;;;108.50;3.07;;;15.90;42.00;;;;;;5033249;28;20187;-84
2023/08/07 05:38:50;;;;;;;108.17;2.73;;;15.50;44.30;;;;;;5033713;28;20563;-83
2023/08/07 05:41:16;;;;;;;107.97;2.60;;;16.00;43.60;;;;;;5033517;28;20176;-84
2023/08/07 05:43:42;;;;;;;108.40;2.90;;;16.50;41.70;;;;;;5036000;28;20199;-84
2023/08/07 05:46:07;;;;;;;108.40;2.83;;;16.60;41.30;;;;;;5032523;28;20431;-85
2023/08/07 05:48:33;;;;;;;108.70;3.40;;;16.40;40.80;;;;;;5032941;28;20275;-84
2023/08/07 05:50:59;;;;;;;108.20;2.83;;;16.70;40.50;;;;;;5033118;28;20258;-84
2023/08/07 05:53:24;;;;;;;108.53;3.17;;;16.20;40.10;;;;;;5032827;28;20237;-85
2023/08/07 05:55:50;;;;;;;108.77;3.23;;;15.90;42.20;;;;;;5032326;28;20235;-84
2023/08/07 05:58:15;;;;;;;108.30;2.90;;;15.50;42.00;;;;;;5033010;28;20233;-84
2023/08/07 06:00:41;;;;;;;108.07;2.90;;;15.70;43.20;;;;;;5033464;28;20256;-84
2023/08/07 06:03:07;;;;;;;108.47;3.20;;;16.00;42.20;;;;;;5032955;28;20200;-84
2023/08/07 06:05:34;;;;;;;108.30;3.00;;;16.30;41.10;;;;;;5032679;28;20204;-84
2023/08/07 06:08:00;;;;;;;108.27;2.87;;;16.70;39.80;;;;;;5032964;28;20543;-84
2023/08/07 06:10:27;;;;;;;107.87;2.57;;;17.20;39.00;;;;;;5032724;28;20427;-84
2023/08/07 06:12:52;;;;;;;107.77;2.80;;;17.20;38.70;;;;;;5033045;28;20172;-84
2023/08/07 06:15:19;;;;;;;108.43;3.23;;;16.80;38.70;;;;;;5033104;28;20422;-84
2023/08/07 06:17:44;;;;;;;107.80;2.63;;;16.30;42.30;;;;;;5032589;28;20180;-83
2023/08/07 06:20:11;;;;;;;108.17;2.93;;;16.30;41.60;;;;;;5032367;28;20508;-84
2023/08/07 06:22:37;;;;;;;108.80;3.53;;;15.10;44.00;;;;;;5033224;28;20199;-83
2023/08/07 06:25:04;;;;;;;108.67;3.00;;;15.30;44.50;;;;;;5033002;28;20435;-83
2023/08/07 06:27:30;;;;;;;107.90;2.90;;;15.40;44.30;;;;;;5032903;28;20459;-83
2023/08/07 06:29:56;;;;;;;107.67;2.83;;;16.20;42.80;;;;;;5032996;28;20434;-83
2023/08/07 06:32:22;;;;;;;107.90;3.10;;;16.40;40.50;;;;;;5033554;28;20968;-83
2023/08/07 06:34:47;;;;;;;107.73;2.73;;;16.70;40.50;;;;;;5033330;28;20413;-84
2023/08/07 06:37:14;;;;;;;107.70;3.00;;;17.00;38.90;;;;;;5033147;28;20172;-84
2023/08/07 06:39:39;;;;;;;108.00;2.97;;;17.50;39.20;;;;;;5032908;28;20219;-83
2023/08/07 06:42:05;;;;;;;108.90;3.13;;;17.40;39.20;;;;;;5032606;28;20415;-84
2023/08/07 06:44:30;;;;;;;108.97;3.33;;;17.40;38.60;;;;;;5032362;28;20207;-84
2023/08/07 06:46:56;;;;;;;107.70;2.80;;;17.60;38.00;;;;;;5032237;28;20722;-84
2023/08/07 06:49:22;;;;;;;107.90;3.00;;;17.40;39.00;;;;;;5032937;28;20192;-84
2023/08/07 06:51:47;;;;;;;107.50;2.80;;;17.40;39.40;;;;;;5036408;28;20257;-83
2023/08/07 06:54:13;;;;;;;107.67;2.93;;;17.30;39.90;;;;;;5032463;28;20534;-83
2023/08/07 06:56:40;;;;;;;107.50;2.80;;;18.00;39.90;;;;;;5032126;28;20177;-84
2023/08/07 06:59:06;;;;;;;107.90;3.10;;;17.50;38.80;;;;;;5031917;28;20291;-84
2023/08/07 07:01:32;;;;;;;107.57;2.80;;;17.20;39.90;;;;;;5030578;28;20566;-84
2023/08/07 07:03:57;;;;;;;107.57;2.90;;;17.00;39.50;;;;;;5032663;28;20254;-84
2023/08/07 07:06:25;;;;;;;107.50;2.70;;;17.50;40.10;;;;;;5032419;28;20180;-83
2023/08/07 07:08:53;;;;;;;107.40;2.80;;;17.00;39.80;;;;;;5032617;28;20192;-83
2023/08/07 07:11:20;;;;;;;107.57;2.87;;;17.20;40.40;;;;;;5032568;28;20430;-83
2023/08/07 07:13:46;;;;;;;107.20;2.80;;;17.10;41.60;;;;;;5031332;28;20811;-83
2023/08/07 07:16:13;;;;;;;107.40;2.70;;;16.70;41.50;;;;;;5032468;28;20421;-83
2023/08/07 07:18:39;;;;;;;107.50;2.90;;;16.50;42.50;;;;;;5031814;28;20282;-83
2023/08/07 07:21:04;;;;;;;108.00;3.30;;;16.90;42.10;;;;;;5032817;28;20440;-84
2023/08/07 07:23:30;;;;;;;107.60;3.20;;;17.00;41.60;;;;;;5031108;28;20465;-84
2023/08/07 07:25:57;;;;;;;107.33;2.80;;;16.80;43.50;;;;;;5032188;28;20230;-83
2023/08/07 07:28:23;;;;;;;107.40;2.80;;;16.90;42.20;;;;;;5034320;28;20204;-83
2023/08/07 07:30:49;;;;;;;108.17;2.97;;;17.00;42.30;;;;;;5033182;28;20414;-83
2023/08/07 07:33:15;;;;;;;107.40;2.90;;;16.60;42.70;;;;;;5032875;28;20555;-83
2023/08/07 07:35:42;;;;;;;107.07;2.80;;;17.30;42.00;;;;;;5032249;28;20403;-83
2023/08/07 07:38:07;;;;;;;112.50;4.97;;;16.40;44.20;;;;;;5032098;28;20415;-84
2023/08/07 07:40:34;;;;;;;107.33;3.07;;;16.40;45.60;;;;;;5031752;28;20404;-84
2023/08/07 07:43:00;;;;;;;106.77;2.63;;;16.90;42.90;;;;;;5031448;28;20201;-84
2023/08/07 07:45:25;;;;;;;107.70;3.00;;;17.60;41.00;;;;;;5031265;28;20414;-83
2023/08/07 07:47:51;;;;;;;107.57;3.23;;;16.80;42.50;;;;;;5030591;28;20177;-84
2023/08/07 07:50:16;;;;;;;107.83;3.07;;;16.90;43.70;;;;;;5030527;28;20192;-83
2023/08/07 07:52:43;;;;;;;107.27;2.90;;;17.10;42.50;;;;;;5032700;28;20592;-83
2023/08/07 07:55:09;;;;;;;107.07;2.70;;;16.70;44.10;;;;;;5032533;28;20712;-83
2023/08/07 07:57:35;;;;;;;107.10;2.70;;;16.80;42.40;;;;;;5032115;28;20422;-84
2023/08/07 08:00:02;;;;;;;107.20;3.10;;;16.60;43.30;;;;;;5031780;28;20849;-83
2023/08/07 08:02:28;;;;;;;110.67;3.73;;;17.30;41.90;;;;;;5032030;28;20186;-84
2023/08/07 08:04:53;;;;;;;107.47;3.23;;;17.20;42.10;;;;;;5031450;28;20772;-84
2023/08/07 08:07:19;;;;;;;107.17;2.90;;;17.70;39.70;;;;;;5031762;28;20286;-83
2023/08/07 08:09:45;;;;;;;106.70;2.60;;;17.50;41.50;;;;;;5032507;28;20666;-83
2023/08/07 08:12:11;;;;;;;107.17;3.07;;;17.30;42.30;;;;;;5032439;28;20179;-83
2023/08/07 08:14:36;;;;;;;109.20;3.90;;;17.60;41.30;;;;;;5031808;28;20180;-84
2023/08/07 08:17:02;;;;;;;107.20;3.30;;;17.40;41.10;;;;;;5032155;28;20926;-85
2023/08/07 08:19:27;;;;;;;107.03;2.90;;;17.80;40.30;;;;;;5038865;28;20292;-84
2023/08/07 08:21:53;;;;;;;107.10;3.23;;;17.30;39.10;;;;;;5036128;28;20715;-83
2023/08/07 08:24:19;;;;;;;107.30;3.10;;;16.80;39.80;;;;;;5035160;28;20278;-83
2023/08/07 08:26:45;;;;;;;106.80;2.90;;;17.10;41.50;;;;;;5039966;28;20181;-83
2023/08/07 08:29:14;;;;;;;106.73;2.97;;;17.50;40.40;;;;;;5036817;28;20268;-83
2023/08/07 08:31:40;;;;;;;112.00;3.60;;;17.20;40.20;;;;;;5039701;28;20459;-83
2023/08/07 08:34:05;;;;;;;107.30;3.30;;;16.70;38.60;;;;;;5037045;28;20809;-82
2023/08/07 08:36:31;;;;;;;107.60;3.47;;;16.50;39.50;;;;;;5035972;28;20262;-83
2023/08/07 08:38:56;;;;;;;106.60;2.90;;;17.00;40.50;;;;;;5035741;28;20200;-83
2023/08/07 08:41:23;;;;;;;107.90;3.00;;;17.50;37.70;;;;;;5036136;28;20544;-83
2023/08/07 08:43:51;;;;;;;106.53;2.93;;;17.40;39.20;;;;;;5037129;28;20285;-83
2023/08/07 08:46:21;;;;;;;106.20;2.70;;;17.20;39.10;;;;;;5037994;28;20522;-83
2023/08/07 08:48:51;;;;;;;106.40;3.27;;;17.10;40.00;;;;;;5037905;28;20421;-83
2023/08/07 08:51:18;;;;;;;106.73;3.20;;;16.90;38.80;;;;;;5037019;28;20409;-82
2023/08/07 08:53:45;;;;;;;106.07;3.07;;;17.30;38.30;;;;;;5036046;28;20411;-83
2023/08/07 08:56:11;;;;;;;105.50;2.60;;;17.40;36.10;;;;;;5036833;28;20754;-83
2023/08/07 08:58:38;;;;;;;105.63;3.07;;;16.80;34.70;;;;;;5037425;28;20443;-83
2023/08/07 09:01:05;;;;;;;105.77;3.03;;;16.50;35.90;;;;;;5045720;28;20441;-83
2023/08/07 09:03:31;;;;;;;105.37;2.90;;;16.90;35.80;;;;;;5045058;28;20921;-83
2023/08/07 09:06:01;;;;;;;105.33;3.00;;;17.00;33.40;;;;;;5044437;28;20468;-84
2023/08/07 09:08:29;;;;;;;104.90;2.73;;;17.40;33.90;;;;;;5045265;28;20429;-83
2023/08/07 09:10:56;;;;;;;104.47;2.47;;;17.10;34.20;;;;;;5043828;28;20428;-83
2023/08/07 09:13:24;;;;;;;104.80;2.60;;;16.80;34.80;;;;;;5048138;28;20408;-83
2023/08/07 09:15:51;;;;;;;104.67;2.97;;;17.30;36.10;;;;;;5041875;28;20417;-83
2023/08/07 09:18:19;;;;;;;104.80;2.90;;;16.80;33.60;;;;;;5041012;28;20488;-83
2023/08/07 09:20:44;;;;;;;104.30;2.80;;;17.20;34.50;;;;;;5040623;28;20412;-83
2023/08/07 09:23:10;;;;;;;104.47;2.67;;;16.60;34.60;;;;;;5034713;28;20460;-83
2023/08/07 09:25:36;;;;;;;104.47;3.00;;;16.80;35.00;;;;;;5035032;28;20267;-83
2023/08/07 09:28:04;;;;;;;104.23;2.73;;;17.10;35.00;;;;;;5035131;28;20414;-82
2023/08/07 09:30:30;;;;;;;106.10;3.30;;;17.60;33.60;;;;;;5033844;28;20186;-83
2023/08/07 09:32:59;;;;;;;104.57;3.27;;;17.80;33.90;;;;;;5035159;28;20909;-83
2023/08/07 09:35:26;;;;;;;103.97;2.57;;;17.70;34.40;;;;;;5034406;28;20905;-83
2023/08/07 09:37:51;;;;;;;104.37;2.70;;;17.40;35.40;;;;;;5036718;28;20413;-82
2023/08/07 09:40:18;;;;;;;104.57;3.10;;;17.30;31.90;;;;;;5035139;28;20495;-83
2023/08/07 09:42:43;;;;;;;104.27;3.10;;;17.00;32.10;;;;;;5034849;28;20187;-83
2023/08/07 09:45:25;;;;;;;104.27;3.00;;;17.20;31.60;;;;;;5034579;28;20959;-84
2023/08/07 09:48:01;;;;;;;103.50;2.60;;;17.00;31.20;;;;;;5036676;28;20168;-83
2023/08/07 09:50:28;;;;;;;104.60;3.30;;;17.40;31.60;;;;;;5036294;28;20429;-83
2023/08/07 09:52:55;;;;;;;103.87;2.70;;;17.30;30.70;;;;;;5034414;28;20476;-83
2023/08/07 09:55:21;;;;;;;103.67;2.53;;;17.40;31.30;;;;;;5033788;28;20889;-83
2023/08/07 09:57:46;;;;;;;103.80;2.70;;;17.90;31.90;;;;;;5034595;28;20438;-83
2023/08/07 10:00:15;;;;;;;104.07;2.80;;;17.90;29.40;;;;;;5034931;28;20257;-83
2023/08/07 10:02:42;;;;;;;104.13;3.03;;;17.80;29.70;;;;;;5037773;28;20780;-83
2023/08/07 10:05:10;;;;;;;103.37;2.77;;;18.00;29.60;;;;;;5032709;28;20435;-84
2023/08/07 10:07:39;;;;;;;103.00;2.63;;;17.80;28.70;;;;;;5033200;28;20421;-83
2023/08/07 10:10:06;;;;;;;102.60;2.53;;;17.20;29.70;;;;;;5032971;28;20426;-84
2023/08/07 10:12:32;;;;;;;103.17;2.80;;;17.30;30.00;;;;;;5033006;28;20722;-83
2023/08/07 10:14:59;;;;;;;102.87;2.63;;;17.90;30.20;;;;;;5032528;28;20911;-81
2023/08/07 10:17:27;;;;;;;102.90;2.63;;;17.80;30.00;;;;;;5032792;28;20456;-83
2023/08/07 10:19:52;;;;;;;102.90;2.70;;;17.40;31.70;;;;;;5032387;28;20492;-83
2023/08/07 10:22:19;;;;;;;102.77;2.67;;;17.30;30.80;;;;;;5032509;28;20498;-83
2023/08/07 10:24:47;;;;;;;102.67;2.70;;;17.30;32.60;;;;;;5032052;28;20261;-83
2023/08/07 10:27:16;;;;;;;103.40;3.23;;;17.70;32.80;;;;;;5032442;28;20494;-83
2023/08/07 10:29:43;;;;;;;104.87;3.47;;;18.10;29.10;;;;;;5032124;28;20476;-83
2023/08/07 10:32:10;;;;;;;102.87;2.80;;;17.90;30.70;;;;;;5032351;28;20697;-83
2023/08/07 10:34:37;;;;;;;104.80;3.17;;;18.00;30.00;;;;;;5031863;28;20487;-83
2023/08/07 10:37:06;;;;;;;102.90;2.93;;;18.00;29.00;;;;;;5032343;28;20419;-83
2023/08/07 10:39:32;;;;;;;102.80;2.90;;;18.30;28.80;;;;;;5032015;28;20526;-83
2023/08/07 10:41:58;;;;;;;102.80;2.80;;;19.10;27.30;;;;;;5031424;28;20412;-83
2023/08/07 10:44:31;;;;;;;102.63;2.80;;;19.30;28.80;;;;;;5031983;28;20538;-83
2023/08/07 10:46:57;;;;;;;102.63;2.80;;;18.80;27.80;;;;;;5032314;28;20200;-83
2023/08/07 10:49:37;;;;;;;102.43;2.60;;;18.80;28.60;;;;;;5031489;28;20447;-83
2023/08/07 10:52:14;;;;;;;102.33;2.57;;;18.50;28.70;;;;;;5032305;28;20406;-82
2023/08/07 10:54:44;;;;;;;102.70;3.00;;;18.30;27.90;;;;;;5031629;28;20457;-84
2023/08/07 10:57:14;;;;;;;103.27;2.67;;;17.80;28.80;;;;;;5032775;28;20930;-83
2023/08/07 11:00:04;;;;;;;102.70;2.80;;;18.20;28.60;;;;;;5033700;28;20473;-83
2023/08/07 11:02:30;;;;;;;102.80;2.97;;;17.90;28.90;;;;;;5032860;28;20414;-83
2023/08/07 11:04:56;;;;;;;103.03;3.10;;;17.80;29.00;;;;;;5033436;28;20490;-83
2023/08/07 11:07:27;;;;;;;102.87;2.80;;;17.80;27.80;;;;;;5034126;28;20918;-83
2023/08/07 11:09:53;;;;;;;102.60;2.70;;;17.90;28.20;;;;;;5034379;28;20420;-83
2023/08/07 11:12:20;;;;;;;104.67;3.17;;;17.70;28.90;;;;;;5033767;28;20524;-84
2023/08/07 11:14:45;;;;;;;102.93;3.00;;;17.90;29.70;;;;;;5033010;28;20895;-83
2023/08/07 11:17:12;;;;;;;102.60;2.90;;;17.90;29.20;;;;;;5034897;28;20447;-84
2023/08/07 11:19:38;;;;;;;102.80;3.07;;;18.00;29.50;;;;;;5033632;28;20222;-82
2023/08/07 11:22:04;;;;;;;102.47;2.80;;;19.30;28.90;;;;;;5033820;28;20512;-83
2023/08/07 11:24:31;;;;;;;102.30;2.60;;;19.30;27.20;;;;;;5031269;28;20472;-82
2023/08/07 11:26:58;;;;;;;102.27;2.83;;;20.00;26.40;;;;;;5033821;28;20501;-83
2023/08/07 11:29:24;;;;;;;102.77;3.00;;;20.00;28.10;;;;;;5032882;28;20438;-83
2023/08/07 11:31:51;;;;;;;102.60;2.70;;;19.70;27.10;;;;;;5034413;28;20507;-82
2023/08/07 11:34:19;;;;;;;102.80;3.10;;;19.60;25.70;;;;;;5034241;28;20913;-82
2023/08/07 11:36:45;;;;;;;102.57;2.90;;;18.40;27.20;;;;;;5043116;28;20419;-82
2023/08/07 11:39:12;;;;;;;101.83;2.40;;;18.20;28.20;;;;;;5036794;28;20797;-83
2023/08/07 11:41:37;;;;;;;102.70;3.13;;;17.70;28.30;;;;;;5035249;28;20921;-83
2023/08/07 11:44:03;;;;;;;102.07;2.50;;;18.20;29.80;;;;;;5035286;28;20454;-83
2023/08/07 11:46:29;;;;;;;102.17;2.97;;;17.70;28.80;;;;;;5033715;28;20182;-82
2023/08/07 11:48:56;;;;;;;102.27;2.80;;;17.60;29.20;;;;;;5035831;28;20335;-82
2023/08/07 11:51:22;;;;;;;102.80;2.90;;;17.80;29.50;;;;;;5034362;28;20469;-83
2023/08/07 11:53:48;;;;;;;101.87;2.60;;;18.00;30.20;;;;;;5036726;28;20443;-83
2023/08/07 11:56:18;;;;;;;102.30;2.80;;;17.80;29.80;;;;;;5037831;28;20442;-82
2023/08/07 11:58:48;;;;;;;102.37;2.77;;;18.00;29.70;;;;;;5035845;28;20427;-82
2023/08/07 12:01:24;;;;;;;102.70;3.10;;;18.10;29.70;;;;;;5038150;28;20446;-82
2023/08/07 12:03:57;;;;;;;102.27;2.60;;;18.10;29.30;;;;;;5037521;28;20997;-82
2023/08/07 12:06:24;;;;;;;102.00;2.50;;;18.20;29.90;;;;;;5038302;28;20622;-81
2023/08/07 12:08:54;;;;;;;102.07;2.43;;;18.00;29.70;;;;;;5037930;28;20443;-82
2023/08/07 12:11:21;;;;;;;102.17;2.63;;;18.80;29.60;;;;;;5038010;28;20447;-83
2023/08/07 12:13:47;;;;;;;102.47;2.70;;;18.60;29.30;;;;;;5037543;28;20415;-82
2023/08/07 12:16:16;;;;;;;102.10;2.60;;;18.20;28.60;;;;;;5037796;28;20469;-83
2023/08/07 12:18:45;;;;;;;102.07;2.70;;;18.10;29.30;;;;;;5039310;28;20537;-82
2023/08/07 12:21:14;;;;;;;102.57;2.87;;;17.50;30.30;;;;;;5039657;28;20440;-83
2023/08/07 12:23:40;;;;;;;102.70;2.83;;;17.30;30.00;;;;;;5038303;28;20451;-82
2023/08/07 12:26:06;;;;;;;102.33;2.50;;;17.20;31.00;;;;;;5038212;28;20437;-82